createdAt,value
2018-12-07T00:00:43.486Z,26.03
2018-12-07T00:03:11.740Z,20.97
2018-12-07T00:05:40.168Z,20.20
2018-12-07T00:08:08.429Z,22.73
2018-12-07T00:10:36.698Z,22.60
2018-12-07T00:13:05.167Z,21.03
2018-12-07T00:15:33.488Z,17.73
2018-12-07T00:18:01.780Z,15.13
2018-12-07T00:20:30.085Z,17.20
2018-12-07T00:22:58.435Z,14.57
2018-12-07T00:25:26.804Z,16.30
2018-12-07T00:27:55.164Z,13.27
2018-12-07T00:30:24.003Z,12.70
2018-12-07T00:32:52.769Z,13.30
2018-12-07T00:35:21.256Z,12.33
2018-12-07T00:37:49.591Z,12.60
2018-12-07T00:40:17.881Z,15.50
2018-12-07T00:42:46.416Z,14.90
2018-12-07T00:45:14.696Z,12.23
2018-12-07T00:47:43.045Z,13.63
2018-12-07T00:50:11.301Z,13.40
2018-12-07T00:52:39.729Z,11.13
2018-12-07T00:55:18.081Z,13.63
2018-12-07T00:57:46.523Z,15.10
2018-12-07T01:00:15.060Z,13.33
2018-12-07T01:02:43.351Z,12.33
2018-12-07T01:05:11.632Z,13.70
2018-12-07T01:07:40.015Z,15.30
2018-12-07T01:10:08.444Z,17.33
2018-12-07T01:12:36.685Z,17.40
2018-12-07T01:15:05.300Z,14.07
2018-12-07T01:17:33.624Z,19.50
2018-12-07T01:20:01.914Z,16.83
2018-12-07T01:22:30.195Z,15.13
2018-12-07T01:24:58.578Z,18.33
2018-12-07T01:27:26.966Z,16.97
2018-12-07T01:29:55.309Z,19.40
2018-12-07T01:32:23.667Z,27.43
2018-12-07T01:34:52.039Z,20.40
2018-12-07T01:37:20.291Z,21.77
2018-12-07T01:39:48.575Z,18.43
2018-12-07T01:42:16.935Z,22.37
2018-12-07T01:44:45.209Z,23.23
2018-12-07T01:47:13.808Z,20.13
2018-12-07T01:49:42.071Z,19.00
2018-12-07T01:52:10.354Z,21.97
2018-12-07T01:54:38.610Z,22.17
2018-12-07T01:57:06.913Z,19.13
2018-12-07T01:59:35.330Z,22.43
2018-12-07T02:02:03.803Z,20.03
2018-12-07T02:04:32.080Z,17.20
2018-12-07T02:07:00.339Z,19.13
2018-12-07T02:09:28.969Z,21.77
2018-12-07T02:11:57.223Z,20.13
2018-12-07T02:14:26.235Z,18.03
2018-12-07T02:16:54.812Z,18.37
2018-12-07T02:19:23.367Z,22.50
2018-12-07T02:21:51.715Z,20.77
2018-12-07T02:24:20.091Z,16.10
2018-12-07T02:26:48.378Z,19.43
2018-12-07T02:29:16.704Z,22.40
2018-12-07T02:31:45.081Z,19.40
2018-12-07T02:34:13.364Z,23.33
2018-12-07T02:36:41.642Z,16.80
2018-12-07T02:39:09.925Z,18.47
2018-12-07T02:41:38.259Z,20.47
2018-12-07T02:44:06.332Z,17.80
2018-12-07T02:46:34.696Z,17.03
2018-12-07T02:49:03.084Z,17.83
2018-12-07T02:51:31.356Z,14.87
2018-12-07T02:53:59.714Z,14.97
2018-12-07T02:59:21.036Z,15.50
2018-12-07T03:01:49.316Z,14.50
2018-12-07T03:04:19.216Z,15.57
2018-12-07T03:06:47.663Z,12.87
2018-12-07T03:09:16.038Z,14.03
2018-12-07T03:11:44.426Z,14.93
2018-12-07T03:14:15.015Z,11.83
2018-12-07T03:16:43.424Z,13.13
2018-12-07T03:19:11.785Z,14.63
2018-12-07T03:21:40.168Z,11.83
2018-12-07T03:24:08.479Z,13.37
2018-12-07T03:26:36.979Z,13.70
2018-12-07T03:29:05.421Z,15.10
2018-12-07T03:31:33.710Z,12.67
2018-12-07T03:34:02.498Z,11.23
2018-12-07T03:36:31.089Z,10.83
2018-12-07T03:38:59.435Z,12.50
2018-12-07T03:41:27.696Z,13.03
2018-12-07T03:43:56.049Z,12.13
2018-12-07T03:46:24.437Z,10.77
2018-12-07T03:48:52.711Z,12.47
2018-12-07T03:51:21.273Z,10.63
2018-12-07T03:53:49.659Z,11.27
2018-12-07T03:56:17.941Z,9.13
2018-12-07T03:58:46.448Z,10.30
2018-12-07T04:01:14.759Z,15.77
2018-12-07T04:03:43.152Z,10.23
2018-12-07T04:06:11.513Z,12.87
2018-12-07T04:08:39.865Z,10.53
2018-12-07T04:11:08.220Z,9.83
2018-12-07T04:13:36.595Z,12.63
2018-12-07T04:16:04.974Z,13.60
2018-12-07T04:18:33.419Z,11.37
2018-12-07T04:21:02.144Z,10.40
2018-12-07T04:23:30.500Z,9.77
2018-12-07T04:25:58.817Z,9.50
2018-12-07T04:28:27.115Z,10.40
2018-12-07T04:30:55.471Z,12.87
2018-12-07T04:33:23.758Z,9.53
2018-12-07T04:35:52.131Z,9.87
2018-12-07T04:38:20.431Z,9.50
2018-12-07T04:40:49.302Z,11.10
2018-12-07T04:43:17.812Z,10.60
2018-12-07T04:45:46.066Z,8.63
2018-12-07T04:48:14.431Z,8.70
2018-12-07T04:50:43.126Z,11.80
2018-12-07T04:53:11.469Z,11.80
2018-12-07T04:55:39.736Z,9.60
2018-12-07T04:58:08.112Z,12.27
2018-12-07T05:00:36.792Z,11.47
2018-12-07T05:03:05.177Z,10.50
2018-12-07T05:05:33.577Z,10.30
2018-12-07T05:08:02.164Z,15.43
2018-12-07T05:10:30.541Z,15.90
2018-12-07T05:12:58.939Z,9.90
2018-12-07T05:15:27.297Z,10.03
2018-12-07T05:17:55.685Z,9.07
2018-12-07T05:20:24.043Z,9.77
2018-12-07T05:22:52.338Z,9.60
2018-12-07T05:25:20.652Z,10.40
2018-12-07T05:27:49.072Z,10.37
2018-12-07T05:30:17.429Z,9.87
2018-12-07T05:32:45.729Z,10.80
2018-12-07T05:35:14.109Z,9.50
2018-12-07T05:37:42.391Z,10.30
2018-12-07T05:40:10.793Z,9.33
2018-12-07T05:42:39.123Z,12.73
2018-12-07T05:45:07.648Z,10.60
2018-12-07T05:47:36.070Z,12.53
2018-12-07T05:50:05.010Z,14.20
2018-12-07T05:52:33.357Z,11.20
2018-12-07T05:55:01.911Z,13.00
2018-12-07T05:57:30.276Z,13.23
2018-12-07T06:00:00.772Z,11.83
2018-12-07T06:02:29.137Z,11.67
2018-12-07T06:04:57.588Z,12.73
2018-12-07T06:07:25.907Z,12.40
2018-12-07T06:09:54.224Z,13.03
2018-12-07T06:12:22.521Z,10.63
2018-12-07T06:14:50.840Z,13.60
2018-12-07T06:17:19.356Z,13.77
2018-12-07T06:19:47.702Z,15.93
2018-12-07T06:22:28.376Z,14.73
2018-12-07T06:24:56.694Z,12.73
2018-12-07T06:27:25.138Z,12.33
2018-12-07T06:29:53.912Z,12.05
2018-12-07T06:32:22.242Z,14.87
2018-12-07T06:34:50.711Z,12.93
2018-12-07T06:37:19.098Z,16.65
2018-12-07T06:39:47.674Z,19.07
2018-12-07T06:42:19.683Z,15.40
2018-12-07T06:44:48.140Z,19.10
2018-12-07T06:47:16.475Z,14.93
2018-12-07T06:49:44.800Z,14.23
2018-12-07T06:52:13.117Z,12.53
2018-12-07T06:54:41.519Z,13.30
2018-12-07T06:57:09.840Z,16.25
2018-12-07T06:59:38.208Z,16.23
2018-12-07T07:02:06.713Z,15.30
2018-12-07T07:04:35.071Z,12.27
2018-12-07T07:07:05.213Z,19.80
2018-12-07T07:09:33.779Z,15.60
2018-12-07T07:12:02.135Z,15.57
2018-12-07T07:14:30.501Z,16.60
2018-12-07T07:16:58.829Z,16.83
2018-12-07T07:19:27.124Z,17.00
2018-12-07T07:21:55.532Z,13.30
2018-12-07T07:24:23.809Z,14.50
2018-12-07T07:26:52.145Z,18.67
2018-12-07T07:29:20.524Z,12.50
2018-12-07T07:31:48.881Z,15.23
2018-12-07T07:34:17.287Z,15.00
2018-12-07T07:36:51.818Z,14.27
2018-12-07T07:39:20.106Z,16.10
2018-12-07T07:41:48.386Z,21.07
2018-12-07T07:44:16.807Z,22.30
2018-12-07T07:46:45.179Z,17.10
2018-12-07T07:49:13.464Z,17.63
2018-12-07T07:51:42.352Z,19.67
2018-12-07T07:54:10.628Z,19.53
2018-12-07T07:56:38.944Z,19.23
2018-12-07T07:59:07.304Z,18.47
2018-12-07T08:01:35.610Z,19.87
2018-12-07T08:04:03.982Z,21.57
2018-12-07T08:06:32.371Z,22.27
2018-12-07T08:09:00.672Z,22.80
2018-12-07T08:11:28.992Z,22.40
2018-12-07T08:13:57.416Z,21.43
2018-12-07T08:16:25.692Z,21.87
2018-12-07T08:18:54.040Z,17.23
2018-12-07T08:21:22.416Z,19.67
2018-12-07T08:23:50.691Z,19.97
2018-12-07T08:26:19.388Z,16.70
2018-12-07T08:28:47.707Z,22.87
2018-12-07T08:31:16.069Z,15.73
2018-12-07T08:33:44.374Z,20.60
2018-12-07T08:36:13.016Z,17.80
2018-12-07T08:38:41.303Z,16.17
2018-12-07T08:41:09.568Z,16.10
2018-12-07T08:43:37.890Z,14.80
2018-12-07T08:46:06.178Z,19.10
2018-12-07T08:48:34.633Z,16.07
2018-12-07T08:51:03.083Z,14.47
2018-12-07T08:53:31.409Z,13.87
2018-12-07T08:55:59.808Z,13.50
2018-12-07T08:58:28.177Z,18.73
2018-12-07T09:00:56.497Z,15.80
2018-12-07T09:03:24.787Z,11.10
2018-12-07T09:05:53.100Z,11.30
2018-12-07T09:08:21.388Z,17.07
2018-12-07T09:10:49.663Z,12.37
2018-12-07T09:13:18.075Z,10.70
2018-12-07T09:15:46.355Z,14.33
2018-12-07T09:18:14.621Z,14.23
2018-12-07T09:20:43.005Z,11.63
2018-12-07T09:23:11.309Z,12.07
2018-12-07T09:25:39.757Z,11.77
2018-12-07T09:28:08.060Z,10.80
2018-12-07T09:30:36.454Z,11.63
2018-12-07T09:33:04.816Z,10.53
2018-12-07T09:35:33.172Z,10.13
2018-12-07T09:38:01.646Z,10.13
2018-12-07T09:40:29.920Z,14.80
2018-12-07T09:42:58.275Z,11.43
2018-12-07T09:45:26.551Z,8.53
2018-12-07T09:47:54.841Z,11.10
2018-12-07T09:50:23.202Z,12.90
2018-12-07T09:52:51.555Z,6.47
2018-12-07T09:55:19.964Z,8.37
2018-12-07T09:57:48.332Z,8.80
2018-12-07T10:00:16.766Z,7.80
2018-12-07T10:02:45.082Z,11.13
2018-12-07T10:05:13.489Z,14.40
2018-12-07T10:07:41.881Z,11.20
2018-12-07T10:10:10.191Z,11.60
2018-12-07T10:12:38.468Z,10.50
2018-12-07T10:15:06.957Z,8.50
2018-12-07T10:17:35.295Z,9.13
2018-12-07T10:20:04.080Z,8.20
2018-12-07T10:22:32.467Z,8.90
2018-12-07T10:25:00.852Z,15.93
2018-12-07T10:27:29.201Z,7.47
2018-12-07T10:29:57.562Z,9.33
2018-12-07T10:32:25.907Z,8.53
2018-12-07T10:34:54.201Z,9.13
2018-12-07T10:37:22.468Z,8.80
2018-12-07T10:39:51.327Z,8.57
2018-12-07T10:42:19.693Z,8.37
2018-12-07T10:44:48.069Z,7.97
2018-12-07T10:47:16.353Z,8.13
2018-12-07T10:49:45.047Z,7.27
2018-12-07T10:52:13.420Z,7.93
2018-12-07T10:54:41.755Z,9.20
2018-12-07T10:57:10.025Z,11.93
2018-12-07T10:59:38.333Z,9.77
2018-12-07T11:02:12.201Z,7.90
2018-12-07T11:04:45.881Z,9.37
2018-12-07T11:07:19.700Z,7.60
2018-12-07T11:09:53.395Z,12.70
2018-12-07T11:12:27.094Z,8.07
2018-12-07T11:15:00.800Z,6.57
2018-12-07T11:17:34.624Z,7.17
2018-12-07T11:20:08.413Z,5.07
2018-12-07T11:22:42.242Z,8.00
2018-12-07T11:25:15.928Z,8.73
2018-12-07T11:27:50.586Z,6.60
2018-12-07T11:30:24.260Z,4.80
2018-12-07T11:32:57.910Z,11.40
2018-12-07T11:35:30.664Z,6.67
2018-12-07T11:37:58.954Z,5.93
2018-12-07T11:40:28.686Z,6.53
2018-12-07T11:42:57.141Z,8.33
2018-12-07T11:45:25.412Z,8.77
2018-12-07T11:47:53.742Z,6.87
2018-12-07T11:50:22.156Z,6.13
2018-12-07T11:52:50.498Z,6.40
2018-12-07T11:55:18.896Z,4.77
2018-12-07T11:57:47.311Z,5.27
2018-12-07T12:00:15.708Z,6.10
2018-12-07T12:02:43.992Z,6.83
2018-12-07T12:05:12.551Z,3.67
2018-12-07T12:07:40.900Z,4.03
2018-12-07T12:10:09.369Z,4.13
2018-12-07T12:12:37.688Z,3.00
2018-12-07T12:15:07.416Z,3.83
2018-12-07T12:17:35.711Z,3.30
2018-12-07T12:20:05.525Z,5.07
2018-12-07T12:22:33.873Z,3.57
2018-12-07T12:25:02.272Z,3.20
2018-12-07T12:27:30.536Z,2.50
2018-12-07T12:29:59.150Z,2.40
2018-12-07T12:32:27.562Z,3.20
2018-12-07T12:34:55.857Z,3.07
2018-12-07T12:37:24.136Z,3.20
2018-12-07T12:39:52.424Z,2.87
2018-12-07T12:42:20.820Z,2.87
2018-12-07T12:44:49.180Z,2.23
2018-12-07T12:47:17.452Z,2.27
2018-12-07T12:49:45.766Z,3.10
2018-12-07T12:52:22.984Z,3.43
2018-12-07T12:55:01.398Z,2.60
2018-12-07T12:57:43.912Z,3.83
2018-12-07T13:00:22.244Z,3.50
2018-12-07T13:03:03.425Z,2.57
2018-12-07T13:05:41.434Z,4.17
2018-12-07T13:08:20.987Z,3.30
2018-12-07T13:11:07.796Z,1.67
2018-12-07T13:13:42.620Z,1.90
2018-12-07T13:49:03.112Z,1.17
2018-12-07T14:03:32.746Z,1.40
2018-12-07T14:09:00.720Z,1.60
2018-12-07T14:14:21.616Z,1.47
2018-12-07T14:16:55.675Z,1.33
2018-12-07T14:19:23.848Z,1.00
2018-12-07T14:28:03.926Z,3.60
2018-12-07T14:30:32.391Z,2.00
2018-12-07T14:33:00.601Z,1.23
2018-12-07T14:35:29.189Z,1.93
2018-12-07T14:44:14.874Z,1.60
2018-12-07T15:11:11.532Z,3.13
2018-12-07T15:21:50.295Z,2.23
2018-12-07T15:24:24.729Z,2.87
2018-12-07T15:26:54.303Z,1.40
2018-12-07T15:35:39.391Z,2.37
2018-12-07T15:41:24.504Z,1.20
2018-12-07T15:43:58.566Z,2.67
2018-12-07T15:46:36.694Z,3.03
2018-12-07T15:52:13.886Z,2.80
2018-12-07T15:54:48.488Z,1.63
2018-12-07T16:09:33.384Z,1.90
2018-12-07T16:18:25.617Z,2.40
2018-12-07T16:20:57.355Z,2.70
2018-12-07T16:23:47.993Z,2.97
2018-12-07T17:11:59.530Z,5.67
2018-12-07T17:14:34.318Z,2.50
2018-12-07T17:20:21.793Z,2.37
2018-12-07T17:25:53.123Z,2.27
2018-12-07T17:28:28.584Z,4.00
2018-12-07T17:34:03.165Z,2.73
2018-12-07T17:45:58.129Z,1.90
2018-12-07T18:12:56.288Z,2.87
2018-12-07T18:27:38.403Z,2.07
2018-12-07T18:39:24.647Z,3.17
2018-12-07T18:44:58.997Z,1.33
2018-12-07T18:50:49.351Z,2.07
2018-12-07T18:53:21.210Z,1.37
2018-12-07T19:02:02.746Z,4.17
2018-12-07T19:10:56.368Z,9.03
2018-12-07T19:13:27.095Z,4.80
2018-12-07T19:16:00.886Z,4.67
2018-12-07T19:18:48.274Z,5.83
2018-12-07T19:21:34.341Z,3.23
2018-12-07T19:24:05.720Z,3.30
2018-12-07T19:26:37.669Z,3.90
2018-12-07T19:29:12.424Z,5.03
2018-12-07T19:31:40.985Z,7.90
2018-12-07T19:34:09.518Z,6.23
2018-12-07T19:36:38.020Z,3.93
2018-12-07T19:42:25.082Z,6.80
2018-12-07T19:44:53.745Z,7.17
2018-12-07T19:47:28.160Z,7.70
2018-12-07T19:50:03.611Z,6.57
2018-12-07T19:52:34.476Z,4.40
2018-12-07T19:55:04.366Z,7.10
2018-12-07T19:57:38.941Z,3.70
2018-12-07T20:00:09.553Z,7.67
2018-12-07T20:02:38.848Z,8.10
2018-12-07T20:05:08.125Z,11.23
2018-12-07T20:07:36.699Z,13.17
2018-12-07T20:10:06.078Z,10.20
2018-12-07T20:12:40.406Z,9.90
2018-12-07T20:15:20.679Z,12.87
2018-12-07T20:18:11.605Z,5.70
2018-12-07T20:20:45.645Z,11.83
2018-12-07T20:23:20.519Z,14.03
2018-12-07T20:25:52.085Z,11.67
2018-12-07T20:28:26.823Z,13.57
2018-12-07T20:30:58.605Z,8.17
2018-12-07T20:33:30.282Z,12.00
2018-12-07T20:36:04.852Z,8.73
2018-12-07T20:38:52.196Z,11.70
2018-12-07T20:41:33.266Z,14.00
2018-12-07T20:44:14.176Z,11.63
2018-12-07T20:46:46.152Z,14.03
2018-12-07T20:49:20.785Z,16.00
2018-12-07T20:55:04.598Z,15.77
2018-12-07T21:03:58.692Z,19.65
2018-12-07T21:06:49.089Z,12.60
2018-12-07T21:09:33.207Z,20.97
2018-12-07T21:12:16.156Z,19.73
2018-12-07T21:14:51.354Z,14.83
2018-12-07T21:17:32.373Z,18.40
2018-12-07T21:23:15.643Z,17.00
2018-12-07T21:50:16.369Z,17.63
2018-12-07T21:53:03.636Z,17.13
2018-12-07T21:55:41.770Z,13.17
2018-12-07T21:58:29.039Z,21.43
2018-12-07T22:04:15.440Z,12.03
2018-12-07T22:07:02.050Z,14.53
2018-12-07T22:09:43.237Z,16.60
2018-12-07T22:12:27.991Z,14.83
2018-12-07T22:18:02.421Z,21.93
2018-12-07T22:23:43.109Z,18.00
2018-12-07T22:26:14.890Z,14.53
2018-12-07T22:31:58.782Z,11.70
2018-12-07T22:34:35.512Z,13.63
2018-12-07T22:37:07.453Z,13.10
2018-12-07T22:39:39.291Z,14.23
2018-12-07T22:45:04.880Z,14.43
2018-12-07T22:53:58.368Z,10.27
2018-12-07T22:56:38.883Z,17.37
2018-12-07T22:59:13.511Z,17.27
2018-12-07T23:02:02.744Z,14.90
2018-12-07T23:07:35.780Z,9.73
2018-12-07T23:10:05.395Z,19.93
2018-12-07T23:12:33.688Z,12.70
2018-12-07T23:15:18.593Z,12.53
2018-12-07T23:20:55.523Z,15.63
2018-12-07T23:26:36.720Z,14.03
2018-12-07T23:32:05.391Z,9.80
2018-12-07T23:52:44.291Z,7.47
